Roxbury Township, NJ

1:39 PM EDT on March 28, 2015 (GMT -0400)
APRSWXNET Ledgewood NJ US | | Change Station
CLOSE
Current Station
Personal Weather Station
Location: Ledgewood, NJ
Elevation: 919 ft
Nearby Weather Stations

Elev 919 ft 40.89 °N, 74.67 °W | Updated 35 minutes ago

Mostly Cloudy
Mostly Cloudy
34.0 °F
Feels Like 29 °F
N
6.0
Wind Variable Wind from NNE
Gusts 16.0 mph

Today
High -- | Low -- °F
--% Chance of Precip.
Yesterday
High -- | Low -- °F
Precip. -- in
6:49 AM 7:19 PM
Waxing Gibbous, 64% visible
Pressure 29.86 in
Visibility 10.0 miles
Clouds Scattered Clouds 4400 ft
Mostly Cloudy 8000 ft
Windchill 29 °F
Dew Point 19.0 °F
Humidity 54%
Rainfall in
Snow Depth Not available.
UV 4 out of 12
Pollen 8.00 out of 12
Air Quality Not available.
Flu Activity Not available.
METAR KMMU 281645Z 01017G19KT 10SM SCT044 BKN080 04/M07 A2986

More Conditions Fewer Conditions

Pressure 29.86 in
Visibility 10.0 miles
Clouds Scattered Clouds 4400 ft
Mostly Cloudy 8000 ft
Windchill 29 °F
Dew Point 19.0 °F
Humidity 54%
Rainfall in
Snow Depth Not available.
UV 4 out of 12
Pollen 8.00 out of 12
Air Quality Not available.
Flu Activity Not available.
METAR KMMU 281645Z 01017G19KT 10SM SCT044 BKN080 04/M07 A2986

More Conditions Fewer Conditions

10-Day Weather Forecast

Almanac

Astronomy

Mar. 28, 2015 Rise Set
Actual Time
Civil Twilight
Nautical Twilight
Astronomical Twilight
Moon
Length of Visible Light
Length of Day
Tomorrow will be .
, % of the Moon is Illuminated

Today's Extremes

State Highs State Lows

Community

WunderPhotos

Upload Photos

1,809,033 photos uploaded!

WunderBlogs® & News

Nearby

Air Quality

  Air Quality AQ Index Pollutant
Not available.

Snow Depth

Station Depth Elevation

Earthquake Activity

City Distance Mag. Time & Date
Minimum magnitude displayed is 2.5.

Coastal Water Temperatures

Place Temperature

Stations

Nearby Weather Stations

Station Location Temp. Windchill Dew Point Humidity Wind Precip. Elev Updated Type